Time;durP1;ratioP1;P1;durP2;ratioP2;P2;SDS_P1;SDS_P2;PMS_P1;PMS_P2;Temp;Humidity;BMP_temperature;BMP_pressure;BME280_temperature;BME280_humidity;BME280_pressure;Samples;Min_cycle;Max_cycle;Signal;HPM_P1;HPM_P2
2022/10/07 00:00:52;;;;;;;2.00;1.90;;;19.20;62.50;20.20;102012.00;;;;4991916;28;20183;-47
2022/10/07 00:03:19;;;;;;;1.90;1.80;;;19.20;62.50;20.20;102014.00;;;;4991598;28;20297;-46
2022/10/07 00:05:45;;;;;;;2.10;1.90;;;19.20;62.50;20.20;102005.00;;;;4991979;28;20216;-48
2022/10/07 00:08:12;;;;;;;1.70;1.60;;;19.20;62.60;20.10;102010.00;;;;4992181;28;20220;-47
2022/10/07 00:10:41;;;;;;;1.87;1.70;;;19.20;62.60;20.10;102019.00;;;;4991731;28;20677;-46
2022/10/07 00:13:08;;;;;;;1.90;1.80;;;19.20;62.70;20.10;102013.00;;;;4991704;28;20177;-47
2022/10/07 00:15:34;;;;;;;1.70;1.60;;;19.10;62.60;20.10;102004.00;;;;4991670;28;20554;-47
2022/10/07 00:18:00;;;;;;;1.83;1.73;;;19.10;62.70;20.10;101997.00;;;;4991557;28;20176;-46
2022/10/07 00:20:26;;;;;;;1.97;1.70;;;19.10;62.70;20.10;101994.00;;;;4991777;28;20243;-47
2022/10/07 00:22:52;;;;;;;1.70;1.60;;;19.10;62.70;20.10;101997.00;;;;4973987;28;20180;-47
2022/10/07 00:25:18;;;;;;;1.90;1.80;;;19.10;62.80;20.10;101993.00;;;;4991545;28;20184;-47
2022/10/07 00:27:44;;;;;;;1.90;1.80;;;19.10;62.80;20.10;101993.00;;;;4990390;28;20176;-46
2022/10/07 00:30:10;;;;;;;1.93;1.83;;;19.10;62.80;20.00;101985.00;;;;4991187;28;20220;-48
2022/10/07 00:32:36;;;;;;;1.77;1.67;;;19.10;62.80;20.00;101987.00;;;;4991662;28;20236;-47
2022/10/07 00:35:02;;;;;;;1.77;1.67;;;19.00;62.90;20.00;101978.00;;;;4991191;28;20196;-46
2022/10/07 00:37:28;;;;;;;2.00;1.80;;;19.10;62.90;20.00;101978.00;;;;4991453;28;20200;-47
2022/10/07 00:39:53;;;;;;;1.77;1.67;;;19.00;62.90;20.00;101989.00;;;;4991307;28;20265;-48
2022/10/07 00:42:19;;;;;;;1.97;1.70;;;19.00;62.90;20.00;101977.00;;;;4991065;28;20668;-48
2022/10/07 00:44:47;;;;;;;1.77;1.67;;;19.00;62.90;20.00;101982.00;;;;4990967;28;20253;-48
2022/10/07 00:47:15;;;;;;;2.00;1.80;;;19.00;62.90;19.90;101978.00;;;;4991476;28;20204;-47
2022/10/07 00:49:55;;;;;;;1.80;1.60;;;19.00;62.90;19.90;101979.00;;;;4991371;28;20207;-48
2022/10/07 00:52:23;;;;;;;2.10;1.90;;;19.00;62.90;19.90;101970.00;;;;4989754;28;20208;-48
2022/10/07 00:54:51;;;;;;;1.73;1.63;;;19.00;62.90;19.70;101972.00;;;;4989369;28;20177;-48
2022/10/07 00:57:20;;;;;;;1.60;1.50;;;18.90;62.80;19.90;101970.00;;;;4990745;28;20239;-47
2022/10/07 00:59:46;;;;;;;1.73;1.63;;;18.90;62.80;19.90;101966.00;;;;4990804;28;20198;-47
2022/10/07 01:02:11;;;;;;;1.80;1.70;;;18.90;62.80;19.90;101955.00;;;;4989214;28;20578;-46
2022/10/07 01:04:37;;;;;;;2.00;1.80;;;18.90;63.60;19.80;101959.00;;;;4990107;28;20181;-47
2022/10/07 01:07:03;;;;;;;2.33;1.70;;;18.90;62.90;19.90;101956.00;;;;4989484;28;20200;-47
2022/10/07 01:09:29;;;;;;;1.80;1.70;;;18.90;62.90;19.80;101957.00;;;;4989588;28;20703;-48
2022/10/07 01:12:12;;;;;;;1.80;1.70;;;18.90;63.00;19.80;101935.00;;;;4990658;28;20180;-47
2022/10/07 01:15:08;;;;;;;1.60;1.50;;;18.80;62.90;19.80;101950.00;;;;4989195;28;20184;-47
2022/10/07 01:17:49;;;;;;;2.17;1.87;;;18.90;63.10;19.80;101942.00;;;;4989088;28;20246;-46
2022/10/07 01:20:21;;;;;;;1.73;1.63;;;18.80;62.90;19.80;101927.00;;;;4989174;28;20169;-48
2022/10/07 01:22:56;;;;;;;1.70;1.60;;;18.80;63.10;19.80;101926.00;;;;4990491;28;20176;-47
2022/10/07 01:25:49;;;;;;;1.90;1.73;;;18.80;63.00;19.80;101933.00;;;;4990562;28;20191;-46
2022/10/07 01:28:20;;;;;;;1.70;1.60;;;18.80;63.10;19.70;101927.00;;;;4990509;28;20165;-46
2022/10/07 01:30:48;;;;;;;1.80;1.70;;;18.80;63.10;19.70;101922.00;;;;4972811;28;20280;-48
2022/10/07 01:33:17;;;;;;;1.70;1.60;;;18.80;63.10;19.70;101919.00;;;;4989513;28;20173;-48
2022/10/07 01:35:44;;;;;;;2.00;1.80;;;18.80;63.10;19.50;101919.00;;;;4989263;28;20196;-48
2022/10/07 01:38:10;;;;;;;1.87;1.70;;;18.80;63.10;19.70;101911.00;;;;4989310;28;20173;-48
2022/10/07 01:40:42;;;;;;;1.70;1.60;;;18.70;63.10;19.70;101917.00;;;;4990276;28;20177;-46
2022/10/07 01:43:08;;;;;;;1.77;1.67;;;18.70;63.10;19.60;101915.00;;;;4988649;28;20299;-47
2022/10/07 01:45:36;;;;;;;1.70;1.60;;;18.70;63.20;19.60;101918.00;;;;4989498;28;20260;-46
2022/10/07 01:48:02;;;;;;;1.73;1.63;;;18.70;63.30;19.70;101911.00;;;;4972303;28;20597;-48
2022/10/07 01:50:28;;;;;;;1.83;1.73;;;18.70;63.20;19.60;101907.00;;;;4989991;28;20219;-47
2022/10/07 01:53:51;;;;;;;1.80;1.70;;;18.70;63.20;19.60;101903.00;;;;4988477;28;20669;-46
2022/10/07 01:56:40;;;;;;;1.70;1.60;;;18.60;63.10;19.60;101890.00;;;;4948264;29;20682;-48
2022/10/07 01:59:22;;;;;;;1.70;1.60;;;18.60;63.10;19.60;101896.00;;;;5000050;28;20192;-47
2022/10/07 02:02:08;;;;;;;2.17;1.83;;;18.60;63.30;19.60;101893.00;;;;4988310;28;20160;-47
2022/10/07 02:05:11;;;;;;;1.80;1.70;;;18.60;63.30;19.50;101855.00;;;;4981869;28;20271;-48
2022/10/07 02:08:03;;;;;;;1.80;1.70;;;18.60;63.30;19.50;101881.00;;;;4988101;28;20200;-47
2022/10/07 02:10:36;;;;;;;1.80;1.70;;;18.60;63.30;19.50;101874.00;;;;4988116;28;20192;-47
2022/10/07 02:13:18;;;;;;;2.60;1.70;;;18.60;63.30;19.50;101876.00;;;;4972157;28;20152;-46
2022/10/07 02:15:47;;;;;;;1.73;1.50;;;18.60;63.30;19.50;101858.00;;;;4987759;28;20203;-47
2022/10/07 02:18:15;;;;;;;1.80;1.70;;;18.60;63.20;19.50;101847.00;;;;4988641;28;20252;-47
2022/10/07 02:20:41;;;;;;;1.80;1.70;;;18.60;63.30;19.50;101852.00;;;;4988627;28;20629;-47
2022/10/07 02:23:07;;;;;;;1.80;1.70;;;18.60;63.10;19.50;101858.00;;;;4988514;28;20195;-47
2022/10/07 02:25:38;;;;;;;1.80;1.70;;;18.60;63.30;19.50;101861.00;;;;4987830;28;20220;-47
2022/10/07 02:28:05;;;;;;;1.80;1.70;;;18.60;63.30;19.50;101856.00;;;;4988163;28;20168;-46
2022/10/07 02:30:31;;;;;;;1.70;1.60;;;18.60;63.20;19.50;101860.00;;;;4988124;28;20266;-47
2022/10/07 02:32:59;;;;;;;1.90;1.70;;;18.60;63.30;19.50;101859.00;;;;4987720;28;20634;-47
2022/10/07 02:35:32;;;;;;;1.80;1.70;;;18.50;63.20;19.50;101843.00;;;;4971570;28;20557;-47
2022/10/07 02:38:01;;;;;;;1.80;1.70;;;18.60;63.40;19.50;101851.00;;;;4989131;28;20164;-47
2022/10/07 02:40:34;;;;;;;1.60;1.50;;;18.50;63.40;19.50;101846.00;;;;4987710;28;20191;-48
2022/10/07 02:43:05;;;;;;;1.57;1.47;;;18.50;63.50;19.40;101838.00;;;;4987921;28;20618;-47
2022/10/07 02:45:44;;;;;;;2.50;1.80;;;18.50;63.50;19.40;101841.00;;;;4987625;28;20212;-47
2022/10/07 02:48:21;;;;;;;1.80;1.70;;;18.40;63.50;19.40;101839.00;;;;4987708;28;20170;-47
2022/10/07 02:50:49;;;;;;;2.00;1.80;;;18.50;63.50;19.40;101847.00;;;;4987709;28;20200;-47
2022/10/07 02:53:15;;;;;;;1.80;1.70;;;18.50;63.50;19.40;101844.00;;;;4987759;28;20195;-47
2022/10/07 02:55:42;;;;;;;2.13;1.60;;;18.50;63.50;19.40;101837.00;;;;4987394;28;20673;-47
2022/10/07 02:58:08;;;;;;;1.93;1.77;;;18.40;63.40;19.40;101831.00;;;;4988803;28;20192;-47
2022/10/07 03:00:36;;;;;;;1.70;1.60;;;18.40;63.40;19.40;101832.00;;;;4987637;28;20667;-47
2022/10/07 03:03:01;;;;;;;1.90;1.80;;;18.40;63.40;19.40;101827.00;;;;4988978;28;20176;-47
2022/10/07 03:05:27;;;;;;;2.40;1.70;;;18.40;63.50;19.30;101830.00;;;;4987396;28;20268;-46
2022/10/07 03:07:56;;;;;;;3.97;1.70;;;18.40;63.50;19.30;101822.00;;;;4987645;28;20656;-49
2022/10/07 03:10:22;;;;;;;3.50;2.20;;;18.50;63.50;19.30;101812.00;;;;4987372;28;20223;-47
2022/10/07 03:12:49;;;;;;;5.43;2.10;;;18.40;63.30;19.30;101815.00;;;;4987237;28;20176;-48
2022/10/07 03:15:14;;;;;;;4.53;1.80;;;18.40;63.40;19.40;101820.00;;;;4988372;28;20676;-48
2022/10/07 03:17:40;;;;;;;6.57;2.23;;;18.40;63.30;19.30;101815.00;;;;4988638;28;20196;-46
2022/10/07 03:20:07;;;;;;;2.23;1.60;;;18.50;63.50;19.30;101807.00;;;;4988336;28;20251;-45
2022/10/07 03:22:33;;;;;;;3.03;2.00;;;18.40;63.50;19.40;101809.00;;;;4988816;28;20180;-46
2022/10/07 03:24:59;;;;;;;3.23;2.07;;;18.40;63.60;19.30;101809.00;;;;4987522;28;20246;-47
2022/10/07 03:27:24;;;;;;;3.87;1.80;;;18.30;63.60;19.30;101806.00;;;;4989092;28;20204;-47
2022/10/07 03:29:50;;;;;;;2.83;1.90;;;18.30;63.50;19.30;101804.00;;;;4992375;28;20208;-47
2022/10/07 03:32:16;;;;;;;2.60;1.73;;;18.30;63.60;19.30;101803.00;;;;4992455;28;20179;-47
2022/10/07 03:34:42;;;;;;;1.97;1.67;;;18.30;63.60;19.30;101811.00;;;;4992360;28;20534;-46
2022/10/07 03:37:07;;;;;;;3.87;1.97;;;18.30;63.60;19.30;101806.00;;;;4992356;28;20268;-48
2022/10/07 03:39:33;;;;;;;1.97;1.70;;;18.30;63.60;19.30;101806.00;;;;4992412;28;20617;-48
2022/10/07 03:41:59;;;;;;;5.13;1.80;;;18.30;63.50;19.20;101801.00;;;;4992388;28;20711;-46
2022/10/07 03:44:25;;;;;;;2.23;1.80;;;18.30;63.50;19.20;101793.00;;;;4992137;28;20206;-47
2022/10/07 03:46:51;;;;;;;2.50;2.13;;;18.30;63.60;19.20;101793.00;;;;4991559;28;20672;-46
2022/10/07 03:49:18;;;;;;;3.53;1.60;;;18.20;63.50;19.20;101795.00;;;;4993224;28;20206;-46
2022/10/07 03:51:44;;;;;;;1.87;1.60;;;18.20;63.40;19.20;101796.00;;;;4992948;28;20699;-47
2022/10/07 03:54:09;;;;;;;3.97;2.00;;;18.20;63.40;19.20;101803.00;;;;4992779;28;20180;-47
2022/10/07 03:56:35;;;;;;;2.53;1.90;;;18.20;64.20;19.20;101803.00;;;;4992713;28;20676;-47
2022/10/07 03:59:01;;;;;;;2.03;1.83;;;18.20;63.50;19.20;101796.00;;;;4992949;28;20180;-48
2022/10/07 04:01:30;;;;;;;5.17;1.70;;;18.20;63.50;19.20;101792.00;;;;4992549;28;20172;-47
2022/10/07 04:03:56;;;;;;;3.63;1.80;;;18.20;63.50;19.20;101795.00;;;;4992377;28;20180;-47
2022/10/07 04:06:22;;;;;;;5.07;1.80;;;18.20;63.60;19.10;101785.00;;;;4988144;28;20204;-48
2022/10/07 04:08:52;;;;;;;5.53;1.80;;;18.10;63.50;19.10;101787.00;;;;4971757;28;20219;-47
2022/10/07 04:11:18;;;;;;;10.53;2.10;;;18.10;63.50;19.10;101784.00;;;;4971488;28;20180;-47
2022/10/07 04:13:44;;;;;;;13.73;3.03;;;18.10;63.60;19.10;101788.00;;;;4972763;28;20169;-47
2022/10/07 04:16:09;;;;;;;16.80;3.27;;;18.10;63.60;19.10;101790.00;;;;4972970;28;20208;-48
2022/10/07 04:18:35;;;;;;;18.40;3.90;;;18.10;63.60;19.10;101785.00;;;;4972742;28;20188;-46
2022/10/07 04:21:01;;;;;;;20.63;4.07;;;18.10;63.60;19.10;101781.00;;;;4973007;28;20180;-48
2022/10/07 04:23:27;;;;;;;17.37;3.70;;;18.10;63.60;19.10;101791.00;;;;4972611;28;20259;-48
2022/10/07 04:25:53;;;;;;;12.10;3.43;;;18.00;63.60;19.00;101782.00;;;;4972781;28;20193;-48
2022/10/07 04:28:22;;;;;;;12.30;3.13;;;18.10;63.70;19.00;101776.00;;;;4972946;28;20402;-47
2022/10/07 04:30:50;;;;;;;13.27;3.57;;;18.00;63.70;19.00;101778.00;;;;4973157;28;20212;-47
2022/10/07 04:33:17;;;;;;;17.90;3.67;;;18.00;63.80;19.00;101773.00;;;;4972563;28;20197;-47
2022/10/07 04:35:43;;;;;;;10.40;3.67;;;18.00;63.80;18.90;101770.00;;;;4972572;28;20193;-50
2022/10/07 04:38:10;;;;;;;10.10;3.27;;;18.00;63.80;18.90;101779.00;;;;4971212;28;20214;-48
2022/10/07 04:40:44;;;;;;;13.53;3.40;;;17.90;63.70;18.90;101774.00;;;;4972017;28;20176;-48
2022/10/07 04:43:18;;;;;;;12.53;3.17;;;17.90;63.70;18.90;101766.00;;;;4972063;28;20630;-48
2022/10/07 04:45:44;;;;;;;11.07;3.43;;;17.90;63.60;18.90;101762.00;;;;4971918;28;20203;-48
2022/10/07 04:48:10;;;;;;;11.20;3.13;;;18.00;63.60;18.90;101756.00;;;;4972453;28;20641;-47
2022/10/07 04:50:37;;;;;;;8.33;2.90;;;17.90;63.40;18.90;101752.00;;;;4972090;28;20452;-47
2022/10/07 04:53:04;;;;;;;9.63;3.00;;;17.90;63.40;18.90;101752.00;;;;4971491;28;20291;-47
2022/10/07 04:55:37;;;;;;;8.77;2.80;;;17.90;63.50;18.90;101752.00;;;;4971928;28;20181;-47
2022/10/07 04:58:03;;;;;;;8.90;3.00;;;17.90;63.40;18.90;101754.00;;;;4971857;28;20181;-47
2022/10/07 05:00:29;;;;;;;7.57;3.13;;;17.90;63.40;18.90;101755.00;;;;4971736;28;20181;-47
2022/10/07 05:02:55;;;;;;;9.90;3.00;;;17.90;63.40;18.80;101750.00;;;;4971535;28;20193;-48
2022/10/07 05:05:21;;;;;;;9.53;3.10;;;17.80;63.40;18.80;101750.00;;;;4971624;28;20177;-46
2022/10/07 05:07:50;;;;;;;6.30;2.97;;;17.80;63.40;18.80;101749.00;;;;4971501;28;20192;-47
2022/10/07 05:10:17;;;;;;;6.77;2.63;;;17.80;63.40;18.80;101752.00;;;;4972033;28;20409;-46
2022/10/07 05:12:43;;;;;;;7.03;2.60;;;17.80;63.40;18.80;101739.00;;;;4971495;28;20173;-47
2022/10/07 05:15:09;;;;;;;5.97;2.60;;;17.80;63.40;18.80;101748.00;;;;4972179;28;20670;-47
2022/10/07 05:17:35;;;;;;;4.40;2.40;;;17.80;63.40;18.80;101744.00;;;;4973657;28;20545;-47
2022/10/07 05:20:03;;;;;;;5.83;2.70;;;17.80;63.40;18.80;101744.00;;;;4973333;28;20188;-47
2022/10/07 05:22:30;;;;;;;7.37;2.70;;;17.80;63.40;18.70;101734.00;;;;4971888;28;20263;-46
2022/10/07 05:24:56;;;;;;;5.30;3.00;;;17.70;63.40;18.70;101738.00;;;;4971625;28;20566;-46
2022/10/07 05:27:22;;;;;;;5.10;2.60;;;17.80;63.40;18.70;101735.00;;;;4971178;28;20203;-46
2022/10/07 05:29:48;;;;;;;5.53;2.40;;;17.70;63.30;18.70;101736.00;;;;4970599;28;20649;-46
2022/10/07 05:32:14;;;;;;;7.13;2.63;;;17.70;63.30;18.70;101735.00;;;;4971078;28;20216;-46
2022/10/07 05:34:40;;;;;;;6.20;2.80;;;17.70;63.40;18.70;101734.00;;;;4971094;28;20196;-48
2022/10/07 05:37:06;;;;;;;6.50;2.87;;;17.70;63.40;18.70;101740.00;;;;4970027;28;20551;-48
2022/10/07 05:39:32;;;;;;;5.47;2.60;;;17.70;63.40;18.60;101733.00;;;;4971312;28;20187;-47
2022/10/07 05:41:58;;;;;;;3.93;2.60;;;17.70;63.40;18.60;101732.00;;;;4971137;28;20627;-48
2022/10/07 05:44:24;;;;;;;2.87;2.57;;;17.70;63.50;18.60;101744.00;;;;4970654;28;20181;-47
2022/10/07 05:46:50;;;;;;;3.30;2.30;;;17.70;63.50;18.60;101742.00;;;;4971258;28;20209;-47
2022/10/07 05:49:15;;;;;;;5.70;2.63;;;17.70;63.50;18.60;101733.00;;;;4970667;28;20239;-47
2022/10/07 05:51:41;;;;;;;4.53;2.20;;;17.60;63.40;18.60;101731.00;;;;4970307;28;20202;-47
2022/10/07 05:54:07;;;;;;;3.40;2.40;;;17.60;63.40;18.60;101734.00;;;;4970389;28;20263;-47
2022/10/07 05:56:33;;;;;;;5.37;2.20;;;17.60;63.50;18.50;101732.00;;;;4970785;28;20258;-47
2022/10/07 05:58:59;;;;;;;3.17;2.50;;;17.60;63.50;18.50;101715.00;;;;4971096;28;20267;-47
2022/10/07 06:01:26;;;;;;;3.97;2.30;;;17.60;63.50;18.50;101726.00;;;;4971089;28;20206;-47
2022/10/07 06:03:54;;;;;;;4.97;2.50;;;17.60;63.60;18.50;101712.00;;;;4970706;28;20185;-46
2022/10/07 06:06:20;;;;;;;3.40;2.40;;;17.60;63.60;18.50;101719.00;;;;4971280;28;20197;-45
2022/10/07 06:08:46;;;;;;;2.67;2.20;;;17.50;63.40;18.50;101719.00;;;;4970903;28;20172;-48
2022/10/07 06:13:58;;;;;;;3.40;2.50;;;17.50;63.50;18.50;101707.00;;;;4970322;28;20187;-48
2022/10/07 06:16:24;;;;;;;3.57;2.23;;;17.50;63.50;18.50;101710.00;;;;4970699;28;20278;-49
2022/10/07 06:18:51;;;;;;;2.97;2.10;;;17.50;63.60;18.50;101711.00;;;;4970684;28;20279;-47
2022/10/07 06:21:17;;;;;;;2.40;2.00;;;17.50;63.50;18.50;101721.00;;;;4972282;28;20631;-46
2022/10/07 06:23:43;;;;;;;4.40;2.30;;;17.50;63.50;18.40;101718.00;;;;4971005;28;20407;-46
2022/10/07 06:26:09;;;;;;;3.20;2.27;;;17.50;63.50;18.40;101711.00;;;;4970828;28;20877;-48
2022/10/07 06:28:39;;;;;;;2.93;2.20;;;17.50;63.50;18.40;101718.00;;;;4970726;28;20219;-47
2022/10/07 06:31:14;;;;;;;4.43;2.50;;;17.40;63.50;18.40;101711.00;;;;4969199;28;20201;-46
2022/10/07 06:33:40;;;;;;;3.13;2.20;;;17.40;63.50;18.40;101702.00;;;;4970068;28;20192;-47
2022/10/07 06:36:08;;;;;;;2.97;2.20;;;17.40;63.50;18.40;101708.00;;;;4970108;28;20224;-47
2022/10/07 06:38:34;;;;;;;2.73;2.10;;;17.40;63.60;18.30;101717.00;;;;4968818;28;20609;-47
2022/10/07 06:41:01;;;;;;;3.23;2.23;;;17.40;63.60;18.30;101725.00;;;;4970247;28;20232;-46
2022/10/07 06:43:32;;;;;;;2.97;2.10;;;17.40;63.50;18.30;101710.00;;;;4969716;28;20183;-47
2022/10/07 06:46:02;;;;;;;2.30;1.90;;;17.40;63.60;18.30;101710.00;;;;4970106;28;20212;-46
2022/10/07 06:48:29;;;;;;;4.37;2.33;;;17.40;63.60;18.30;101720.00;;;;4970772;28;20188;-47
2022/10/07 06:50:57;;;;;;;3.53;2.10;;;17.40;63.60;18.30;101711.00;;;;4968708;28;20234;-46
2022/10/07 06:53:23;;;;;;;3.17;2.07;;;17.30;63.60;18.30;101713.00;;;;4969766;28;20188;-47
2022/10/07 06:55:56;;;;;;;3.13;2.30;;;17.30;63.60;18.30;101718.00;;;;4969963;28;20665;-48
2022/10/07 06:58:23;;;;;;;2.50;2.00;;;17.30;63.60;18.30;101720.00;;;;4969911;28;20176;-47
2022/10/07 07:00:49;;;;;;;2.80;2.10;;;17.30;63.70;18.30;101716.00;;;;4969850;28;20486;-47
2022/10/07 07:03:16;;;;;;;2.77;2.23;;;17.30;63.60;18.20;101717.00;;;;4969472;28;20180;-47
2022/10/07 07:05:42;;;;;;;2.37;2.00;;;17.30;63.70;18.20;101724.00;;;;4969832;28;20205;-47
2022/10/07 07:08:07;;;;;;;2.20;2.00;;;17.30;63.80;18.20;101725.00;;;;4952717;28;20229;-47
2022/10/07 07:10:41;;;;;;;3.50;2.20;;;17.30;63.80;18.20;101727.00;;;;4969206;28;20751;-46
2022/10/07 07:13:07;;;;;;;2.40;2.20;;;17.20;63.70;18.20;101722.00;;;;4971225;28;20195;-46
2022/10/07 07:15:34;;;;;;;2.23;2.00;;;17.20;63.70;18.20;101718.00;;;;4971562;28;20173;-46
2022/10/07 07:17:59;;;;;;;3.27;2.20;;;17.20;63.80;18.10;101726.00;;;;4968903;28;20172;-47
2022/10/07 07:20:25;;;;;;;3.30;2.30;;;17.20;63.70;18.20;101725.00;;;;4970242;28;20191;-47
2022/10/07 07:22:51;;;;;;;2.80;1.93;;;17.20;63.70;18.10;101719.00;;;;4969782;28;20664;-47
2022/10/07 07:25:18;;;;;;;2.33;2.00;;;17.20;63.70;18.10;101704.00;;;;4970051;28;20226;-46
2022/10/07 07:27:46;;;;;;;2.43;2.00;;;17.20;63.70;18.20;101716.00;;;;4969858;28;20187;-45
2022/10/07 07:30:12;;;;;;;3.10;2.03;;;17.20;63.70;18.10;101725.00;;;;4970175;28;20212;-47
2022/10/07 07:32:39;;;;;;;3.07;2.33;;;17.20;63.70;18.10;101738.00;;;;4970260;28;20553;-46
2022/10/07 07:35:07;;;;;;;3.80;2.00;;;17.20;63.80;18.10;101692.00;;;;4844935;28;20244;-46
2022/10/07 07:37:33;;;;;;;2.93;1.90;;;17.10;63.30;18.10;101721.00;;;;4925223;29;20360;-45
2022/10/07 07:39:59;;;;;;;4.23;2.00;;;17.20;64.00;18.10;101723.00;;;;4956488;28;20176;-45
2022/10/07 07:42:26;;;;;;;2.40;2.00;;;17.20;64.10;18.10;101714.00;;;;4974509;28;20182;-45
2022/10/07 07:44:54;;;;;;;5.40;1.90;;;17.20;63.90;18.10;101718.00;;;;4969362;28;20167;-47
2022/10/07 07:47:20;;;;;;;2.70;2.37;;;17.20;64.10;18.10;101711.00;;;;4975155;28;20314;-47
2022/10/07 07:49:47;;;;;;;4.23;2.20;;;17.20;64.20;18.10;101718.00;;;;4960676;28;20218;-46
2022/10/07 07:52:13;;;;;;;7.47;2.33;;;17.20;64.30;18.10;101720.00;;;;4986917;28;20259;-47
2022/10/07 07:54:40;;;;;;;5.33;2.27;;;17.20;64.60;18.10;101712.00;;;;4975199;28;20655;-47
2022/10/07 07:57:07;;;;;;;4.07;2.00;;;17.20;64.50;18.10;101701.00;;;;4968954;28;20585;-47
2022/10/07 07:59:33;;;;;;;5.93;2.20;;;17.20;64.40;18.10;101726.00;;;;4968100;28;20562;-46
2022/10/07 08:01:59;;;;;;;4.77;2.30;;;17.20;64.60;18.10;101723.00;;;;4969255;28;20172;-46
2022/10/07 08:04:25;;;;;;;5.57;2.30;;;17.20;64.60;18.10;101709.00;;;;4967849;28;20546;-47
2022/10/07 08:06:51;;;;;;;4.63;2.13;;;17.20;64.60;18.10;101709.00;;;;4968752;28;20202;-47
2022/10/07 08:09:17;;;;;;;5.07;2.40;;;17.20;64.70;18.10;101717.00;;;;4969442;28;20656;-45
2022/10/07 08:11:45;;;;;;;3.53;1.97;;;17.20;64.70;18.00;101712.00;;;;4970367;28;20178;-47
2022/10/07 08:14:15;;;;;;;3.20;2.17;;;17.20;64.90;18.10;101699.00;;;;4970199;28;20645;-47
2022/10/07 08:16:42;;;;;;;4.60;2.20;;;17.20;64.90;18.00;101695.00;;;;4972951;28;20202;-47
2022/10/07 08:19:08;;;;;;;2.73;2.20;;;17.20;64.90;18.00;101700.00;;;;4971627;28;20194;-46
2022/10/07 08:21:34;;;;;;;3.83;2.20;;;17.10;64.70;18.00;101702.00;;;;4972354;28;20174;-47
2022/10/07 08:24:04;;;;;;;3.40;2.23;;;17.10;64.70;18.00;101690.00;;;;4972568;28;20181;-46
2022/10/07 08:26:31;;;;;;;3.40;2.00;;;17.20;64.90;18.00;101697.00;;;;4971198;28;20460;-47
2022/10/07 08:28:58;;;;;;;2.27;2.07;;;17.20;64.90;18.00;101693.00;;;;4972375;28;20177;-47
2022/10/07 08:31:27;;;;;;;4.40;2.20;;;17.20;65.00;18.00;101695.00;;;;4972833;28;20175;-47
2022/10/07 08:33:55;;;;;;;4.20;1.97;;;17.10;64.90;18.00;101696.00;;;;4972022;28;20573;-47
2022/10/07 08:36:21;;;;;;;2.80;1.90;;;17.10;64.90;18.00;101692.00;;;;4846969;28;20549;-46
2022/10/07 08:38:47;;;;;;;2.50;2.10;;;17.20;65.00;18.00;101690.00;;;;4971795;28;20596;-47
2022/10/07 08:41:24;;;;;;;3.67;2.00;;;17.10;64.90;18.00;101688.00;;;;4972272;28;20182;-47
2022/10/07 08:43:50;;;;;;;3.83;2.20;;;17.20;65.10;18.00;101685.00;;;;4971812;28;20173;-47
2022/10/07 08:46:30;;;;;;;2.30;2.10;;;17.20;65.20;18.00;101682.00;;;;4972156;28;20409;-48
2022/10/07 08:49:12;;;;;;;2.13;1.93;;;17.20;65.40;18.00;101686.00;;;;4971498;28;20170;-47
2022/10/07 08:52:02;;;;;;;8.13;2.40;;;17.20;65.40;18.00;101682.00;;;;4971402;28;20188;-46
2022/10/07 08:54:29;;;;;;;5.70;2.50;;;17.20;65.90;18.00;101682.00;;;;4971091;28;20184;-48
2022/10/07 08:57:00;;;;;;;3.03;2.10;;;17.20;65.80;18.00;101676.00;;;;4970292;28;20355;-48
2022/10/07 08:59:33;;;;;;;5.83;2.40;;;17.20;65.80;18.00;101677.00;;;;4971823;28;20166;-48
2022/10/07 09:02:27;;;;;;;2.63;1.93;;;17.20;65.60;18.00;101686.00;;;;4970894;28;20169;-47
2022/10/07 09:05:18;;;;;;;3.70;1.90;;;17.20;65.60;18.00;101682.00;;;;4971772;28;20215;-46
2022/10/07 09:07:47;;;;;;;2.90;2.20;;;17.10;65.60;17.90;101678.00;;;;4974923;28;20820;-46
2022/10/07 09:10:37;;;;;;;3.43;2.00;;;17.10;65.60;18.00;101665.00;;;;4953106;28;20208;-46
2022/10/07 09:13:20;;;;;;;3.60;2.20;;;17.20;65.80;17.90;101664.00;;;;4951942;29;20154;-46
2022/10/07 09:15:54;;;;;;;3.57;2.30;;;17.20;65.80;18.00;101657.00;;;;4951582;28;20217;-46
2022/10/07 09:18:31;;;;;;;3.57;2.27;;;17.10;65.80;18.00;101635.00;;;;4952565;29;20245;-48
2022/10/07 09:20:57;;;;;;;3.10;2.20;;;17.20;65.90;18.00;101652.00;;;;4951845;28;20264;-46
2022/10/07 09:23:28;;;;;;;3.60;2.40;;;17.20;65.80;18.00;101647.00;;;;4951075;29;20258;-47
2022/10/07 09:25:54;;;;;;;2.83;2.10;;;17.20;65.90;18.00;101636.00;;;;4952045;28;20453;-48
2022/10/07 09:28:30;;;;;;;3.80;2.30;;;17.20;65.90;18.00;101640.00;;;;4952028;29;20205;-47
2022/10/07 09:30:59;;;;;;;4.63;2.20;;;17.20;66.10;18.00;101635.00;;;;4962366;28;20204;-48
2022/10/07 09:33:26;;;;;;;2.73;2.07;;;17.20;66.20;18.00;101626.00;;;;4969886;28;20176;-46
2022/10/07 09:36:07;;;;;;;4.23;2.37;;;17.20;66.40;18.00;101634.00;;;;4853048;28;20207;-47
2022/10/07 09:38:34;;;;;;;5.67;2.00;;;17.10;66.40;18.00;101635.00;;;;4969783;28;20265;-47
2022/10/07 09:41:22;;;;;;;3.43;2.30;;;17.20;66.70;18.00;101623.00;;;;4970935;28;20691;-46
2022/10/07 09:43:58;;;;;;;10.70;2.70;;;17.20;66.60;18.00;101606.00;;;;4970979;28;20179;-48
2022/10/07 09:46:47;;;;;;;5.37;2.60;;;17.20;67.30;18.00;101626.00;;;;4971159;28;20616;-47
2022/10/07 09:49:40;;;;;;;8.43;2.93;;;17.10;67.00;18.00;101625.00;;;;4973071;28;20198;-45
2022/10/07 09:52:15;;;;;;;14.93;2.70;;;17.20;67.20;17.90;101623.00;;;;4970357;28;20233;-46
2022/10/07 09:54:42;;;;;;;10.30;3.00;;;17.20;67.40;18.00;101616.00;;;;4970455;28;20229;-46
2022/10/07 09:57:40;;;;;;;12.97;2.83;;;17.20;68.00;18.00;101617.00;;;;4969187;28;20208;-48
2022/10/07 10:00:12;;;;;;;13.63;2.97;;;17.20;67.90;18.00;101624.00;;;;4947575;28;20196;-46
2022/10/07 10:02:52;;;;;;;11.07;2.90;;;17.20;68.40;18.00;101626.00;;;;4970893;28;20176;-47
2022/10/07 10:05:27;;;;;;;10.03;2.67;;;17.20;68.60;18.00;101615.00;;;;4954979;28;20162;-47
2022/10/07 10:08:09;;;;;;;10.20;2.77;;;17.30;68.40;18.00;101607.00;;;;4970581;28;20251;-47
2022/10/07 10:10:35;;;;;;;10.17;2.90;;;17.30;68.30;18.00;101603.00;;;;4970761;28;20285;-48
2022/10/07 10:13:02;;;;;;;7.67;3.10;;;17.30;68.50;18.00;101608.00;;;;4953367;28;20214;-46
2022/10/07 10:15:40;;;;;;;8.70;2.40;;;17.30;68.40;18.00;101595.00;;;;4970633;28;20182;-48
2022/10/07 10:18:32;;;;;;;4.17;2.40;;;17.30;68.30;18.00;101591.00;;;;4970641;28;20222;-47
2022/10/07 10:21:14;;;;;;;5.40;2.30;;;17.30;68.40;18.00;101589.00;;;;4970391;28;20222;-47
2022/10/07 10:24:07;;;;;;;7.13;2.70;;;17.30;68.50;18.00;101596.00;;;;4970472;28;20189;-46
2022/10/07 10:27:00;;;;;;;5.17;2.70;;;17.30;68.60;18.00;101581.00;;;;4956603;28;20199;-47
2022/10/07 10:30:00;;;;;;;8.07;2.30;;;17.30;68.60;18.10;101576.00;;;;4953735;28;20667;-47
2022/10/07 10:33:00;;;;;;;6.83;2.40;;;17.40;68.80;18.10;101567.00;;;;4950746;29;20294;-46
2022/10/07 10:35:27;;;;;;;7.93;2.80;;;17.40;68.80;17.80;101558.00;;;;4851575;28;20169;-46
2022/10/07 10:38:24;;;;;;;7.07;2.70;;;17.50;69.10;18.10;101558.00;;;;4969878;28;20546;-46
2022/10/07 10:41:34;;;;;;;6.17;2.60;;;17.50;69.20;18.10;101552.00;;;;4969854;28;20588;-45
2022/10/07 10:44:32;;;;;;;8.83;2.60;;;17.50;69.20;18.10;101546.00;;;;4963121;28;20289;-46
2022/10/07 10:47:07;;;;;;;6.07;2.87;;;17.50;69.00;18.20;101545.00;;;;4966655;28;20217;-48
2022/10/07 10:50:11;;;;;;;6.57;2.60;;;17.60;68.90;18.20;101540.00;;;;4968801;28;20677;-48
2022/10/07 10:53:37;;;;;;;5.80;2.60;;;17.60;69.30;18.20;101538.00;;;;4969241;28;20169;-48
2022/10/07 10:56:21;;;;;;;4.43;2.30;;;17.60;69.50;18.30;101530.00;;;;4960422;28;20252;-47
2022/10/07 10:59:09;;;;;;;5.60;2.70;;;17.70;69.60;18.30;101506.00;;;;4970311;28;20165;-48
2022/10/07 11:01:40;;;;;;;4.00;2.40;;;17.70;69.60;18.30;101526.00;;;;4968363;28;20179;-47
2022/10/07 11:04:40;;;;;;;3.83;2.43;;;17.70;69.50;18.40;101519.00;;;;4968700;28;20257;-46
2022/10/07 11:07:23;;;;;;;4.77;2.47;;;17.70;69.30;18.40;101516.00;;;;4969632;28;20669;-46